sensor_id;sensor_type;location;lat;lon;timestamp;P1;durP1;ratioP1;P2;durP2;ratioP2
13872;SDS011;7006;51.494;11.964;2023-04-25T00:02:26;10.00;;;8.37;;
13872;SDS011;7006;51.494;11.964;2023-04-25T00:04:59;10.67;;;8.07;;
13872;SDS011;7006;51.494;11.964;2023-04-25T00:07:28;9.80;;;7.80;;
13872;SDS011;7006;51.494;11.964;2023-04-25T00:09:57;10.17;;;8.30;;
13872;SDS011;7006;51.494;11.964;2023-04-25T00:12:25;8.90;;;7.37;;
13872;SDS011;7006;51.494;11.964;2023-04-25T00:14:55;9.37;;;7.90;;
13872;SDS011;7006;51.494;11.964;2023-04-25T00:17:25;11.00;;;7.70;;
13872;SDS011;7006;51.494;11.964;2023-04-25T00:19:53;10.90;;;8.40;;
13872;SDS011;7006;51.494;11.964;2023-04-25T00:22:25;14.23;;;8.57;;
13872;SDS011;7006;51.494;11.964;2023-04-25T00:24:54;9.80;;;8.00;;
13872;SDS011;7006;51.494;11.964;2023-04-25T00:27:25;13.00;;;8.00;;
13872;SDS011;7006;51.494;11.964;2023-04-25T00:29:53;10.27;;;7.50;;
13872;SDS011;7006;51.494;11.964;2023-04-25T00:32:22;11.00;;;7.93;;
13872;SDS011;7006;51.494;11.964;2023-04-25T00:34:50;11.57;;;8.17;;
13872;SDS011;7006;51.494;11.964;2023-04-25T00:37:20;12.40;;;8.73;;
13872;SDS011;7006;51.494;11.964;2023-04-25T00:39:51;11.87;;;8.80;;
13872;SDS011;7006;51.494;11.964;2023-04-25T00:42:21;13.07;;;8.10;;
13872;SDS011;7006;51.494;11.964;2023-04-25T00:44:49;12.43;;;8.27;;
13872;SDS011;7006;51.494;11.964;2023-04-25T00:47:18;13.27;;;8.40;;
13872;SDS011;7006;51.494;11.964;2023-04-25T00:49:46;11.27;;;8.10;;
13872;SDS011;7006;51.494;11.964;2023-04-25T00:52:15;12.37;;;9.00;;
13872;SDS011;7006;51.494;11.964;2023-04-25T00:54:43;14.23;;;9.30;;
13872;SDS011;7006;51.494;11.964;2023-04-25T00:57:14;12.50;;;8.77;;
13872;SDS011;7006;51.494;11.964;2023-04-25T00:59:43;12.03;;;9.07;;
13872;SDS011;7006;51.494;11.964;2023-04-25T01:02:13;11.90;;;8.80;;
13872;SDS011;7006;51.494;11.964;2023-04-25T01:04:42;10.90;;;8.80;;
13872;SDS011;7006;51.494;11.964;2023-04-25T01:07:10;12.07;;;8.87;;
13872;SDS011;7006;51.494;11.964;2023-04-25T01:09:38;11.50;;;7.93;;
13872;SDS011;7006;51.494;11.964;2023-04-25T01:12:07;13.00;;;9.47;;
13872;SDS011;7006;51.494;11.964;2023-04-25T01:14:38;10.77;;;7.83;;
13872;SDS011;7006;51.494;11.964;2023-04-25T01:17:07;13.87;;;8.10;;
13872;SDS011;7006;51.494;11.964;2023-04-25T01:19:36;11.00;;;8.40;;
13872;SDS011;7006;51.494;11.964;2023-04-25T01:22:07;10.80;;;8.10;;
13872;SDS011;7006;51.494;11.964;2023-04-25T01:24:37;13.17;;;8.70;;
13872;SDS011;7006;51.494;11.964;2023-04-25T01:27:05;15.80;;;8.50;;
13872;SDS011;7006;51.494;11.964;2023-04-25T01:29:34;10.93;;;7.83;;
13872;SDS011;7006;51.494;11.964;2023-04-25T01:32:03;14.80;;;9.63;;
13872;SDS011;7006;51.494;11.964;2023-04-25T01:34:32;11.70;;;7.60;;
13872;SDS011;7006;51.494;11.964;2023-04-25T01:37:01;11.83;;;8.87;;
13872;SDS011;7006;51.494;11.964;2023-04-25T01:39:32;12.17;;;8.93;;
13872;SDS011;7006;51.494;11.964;2023-04-25T01:42:00;14.80;;;8.73;;
13872;SDS011;7006;51.494;11.964;2023-04-25T01:44:28;15.40;;;9.10;;
13872;SDS011;7006;51.494;11.964;2023-04-25T01:46:57;11.00;;;8.50;;
13872;SDS011;7006;51.494;11.964;2023-04-25T01:49:25;11.73;;;9.40;;
13872;SDS011;7006;51.494;11.964;2023-04-25T01:51:54;11.80;;;8.73;;
13872;SDS011;7006;51.494;11.964;2023-04-25T01:54:23;11.43;;;9.17;;
13872;SDS011;7006;51.494;11.964;2023-04-25T01:56:55;10.90;;;8.00;;
13872;SDS011;7006;51.494;11.964;2023-04-25T01:59:25;11.57;;;8.00;;
13872;SDS011;7006;51.494;11.964;2023-04-25T02:01:54;11.73;;;7.40;;
13872;SDS011;7006;51.494;11.964;2023-04-25T02:04:22;10.23;;;7.37;;
13872;SDS011;7006;51.494;11.964;2023-04-25T02:06:51;13.37;;;7.83;;
13872;SDS011;7006;51.494;11.964;2023-04-25T02:09:19;9.80;;;7.17;;
13872;SDS011;7006;51.494;11.964;2023-04-25T02:11:48;8.50;;;6.87;;
13872;SDS011;7006;51.494;11.964;2023-04-25T02:14:19;11.57;;;7.00;;
13872;SDS011;7006;51.494;11.964;2023-04-25T02:16:47;10.23;;;6.87;;
13872;SDS011;7006;51.494;11.964;2023-04-25T02:19:16;9.77;;;6.73;;
13872;SDS011;7006;51.494;11.964;2023-04-25T02:21:44;11.67;;;6.70;;
13872;SDS011;7006;51.494;11.964;2023-04-25T02:24:13;7.57;;;6.40;;
13872;SDS011;7006;51.494;11.964;2023-04-25T02:26:41;9.00;;;5.87;;
13872;SDS011;7006;51.494;11.964;2023-04-25T02:29:11;9.10;;;6.30;;
13872;SDS011;7006;51.494;11.964;2023-04-25T02:31:43;9.93;;;7.27;;
13872;SDS011;7006;51.494;11.964;2023-04-25T02:34:11;9.93;;;6.30;;
13872;SDS011;7006;51.494;11.964;2023-04-25T02:36:40;7.60;;;5.90;;
13872;SDS011;7006;51.494;11.964;2023-04-25T02:39:08;8.40;;;6.23;;
13872;SDS011;7006;51.494;11.964;2023-04-25T02:41:37;12.00;;;5.60;;
13872;SDS011;7006;51.494;11.964;2023-04-25T02:44:05;8.07;;;5.70;;
13872;SDS011;7006;51.494;11.964;2023-04-25T02:46:34;8.23;;;5.93;;
13872;SDS011;7006;51.494;11.964;2023-04-25T02:49:05;8.57;;;5.27;;
13872;SDS011;7006;51.494;11.964;2023-04-25T02:51:33;11.87;;;6.23;;
13872;SDS011;7006;51.494;11.964;2023-04-25T02:54:02;9.43;;;5.83;;
13872;SDS011;7006;51.494;11.964;2023-04-25T02:56:31;11.33;;;6.83;;
13872;SDS011;7006;51.494;11.964;2023-04-25T02:59:00;14.67;;;6.23;;
13872;SDS011;7006;51.494;11.964;2023-04-25T03:01:28;8.37;;;5.70;;
13872;SDS011;7006;51.494;11.964;2023-04-25T03:03:57;8.93;;;6.10;;
13872;SDS011;7006;51.494;11.964;2023-04-25T03:06:28;8.77;;;6.17;;
13872;SDS011;7006;51.494;11.964;2023-04-25T03:08:56;10.33;;;6.40;;
13872;SDS011;7006;51.494;11.964;2023-04-25T03:11:24;10.57;;;6.30;;
13872;SDS011;7006;51.494;11.964;2023-04-25T03:13:53;11.87;;;6.50;;
13872;SDS011;7006;51.494;11.964;2023-04-25T03:16:21;13.10;;;7.00;;
13872;SDS011;7006;51.494;11.964;2023-04-25T03:18:50;9.57;;;6.00;;
13872;SDS011;7006;51.494;11.964;2023-04-25T03:21:18;11.90;;;6.67;;
13872;SDS011;7006;51.494;11.964;2023-04-25T03:23:49;10.43;;;5.67;;
13872;SDS011;7006;51.494;11.964;2023-04-25T03:26:18;10.33;;;6.20;;
13872;SDS011;7006;51.494;11.964;2023-04-25T03:28:46;10.50;;;5.97;;
13872;SDS011;7006;51.494;11.964;2023-04-25T03:31:15;13.43;;;5.80;;
13872;SDS011;7006;51.494;11.964;2023-04-25T03:33:43;9.07;;;6.80;;
13872;SDS011;7006;51.494;11.964;2023-04-25T03:36:12;9.63;;;6.07;;
13872;SDS011;7006;51.494;11.964;2023-04-25T03:38:40;8.80;;;6.00;;
13872;SDS011;7006;51.494;11.964;2023-04-25T03:41:11;10.17;;;5.80;;
13872;SDS011;7006;51.494;11.964;2023-04-25T03:43:40;21.03;;;6.47;;
13872;SDS011;7006;51.494;11.964;2023-04-25T03:46:08;13.90;;;7.20;;
13872;SDS011;7006;51.494;11.964;2023-04-25T03:48:36;9.63;;;5.60;;
13872;SDS011;7006;51.494;11.964;2023-04-25T03:51:05;10.03;;;6.27;;
13872;SDS011;7006;51.494;11.964;2023-04-25T03:53:33;10.17;;;6.23;;
13872;SDS011;7006;51.494;11.964;2023-04-25T03:56:02;12.87;;;6.70;;
13872;SDS011;7006;51.494;11.964;2023-04-25T03:58:33;12.20;;;6.77;;
13872;SDS011;7006;51.494;11.964;2023-04-25T04:01:01;12.67;;;6.90;;
13872;SDS011;7006;51.494;11.964;2023-04-25T04:03:33;15.67;;;7.37;;
13872;SDS011;7006;51.494;11.964;2023-04-25T04:06:02;11.97;;;6.70;;
13872;SDS011;7006;51.494;11.964;2023-04-25T04:08:30;9.73;;;6.50;;
13872;SDS011;7006;51.494;11.964;2023-04-25T04:10:59;11.70;;;6.47;;
13872;SDS011;7006;51.494;11.964;2023-04-25T04:13:28;11.97;;;6.77;;
13872;SDS011;7006;51.494;11.964;2023-04-25T04:15:59;10.80;;;6.53;;
13872;SDS011;7006;51.494;11.964;2023-04-25T04:18:29;13.80;;;6.40;;
13872;SDS011;7006;51.494;11.964;2023-04-25T04:20:58;8.87;;;6.13;;
13872;SDS011;7006;51.494;11.964;2023-04-25T04:23:26;12.07;;;7.17;;
13872;SDS011;7006;51.494;11.964;2023-04-25T04:25:55;11.27;;;6.97;;
13872;SDS011;7006;51.494;11.964;2023-04-25T04:28:25;12.70;;;6.70;;
13872;SDS011;7006;51.494;11.964;2023-04-25T04:30:53;10.83;;;6.17;;
13872;SDS011;7006;51.494;11.964;2023-04-25T04:33:25;11.40;;;6.80;;
13872;SDS011;7006;51.494;11.964;2023-04-25T04:35:54;14.90;;;7.93;;
13872;SDS011;7006;51.494;11.964;2023-04-25T04:38:23;16.87;;;10.83;;
13872;SDS011;7006;51.494;11.964;2023-04-25T04:40:51;12.53;;;7.20;;
13872;SDS011;7006;51.494;11.964;2023-04-25T04:43:21;13.33;;;7.33;;
13872;SDS011;7006;51.494;11.964;2023-04-25T04:45:49;11.33;;;6.90;;
13872;SDS011;7006;51.494;11.964;2023-04-25T04:48:21;12.50;;;7.17;;
13872;SDS011;7006;51.494;11.964;2023-04-25T04:50:52;13.57;;;7.10;;
13872;SDS011;7006;51.494;11.964;2023-04-25T04:53:21;12.10;;;7.27;;
13872;SDS011;7006;51.494;11.964;2023-04-25T04:55:49;12.57;;;7.70;;
13872;SDS011;7006;51.494;11.964;2023-04-25T04:58:18;11.80;;;7.17;;
13872;SDS011;7006;51.494;11.964;2023-04-25T05:00:46;13.80;;;9.00;;
13872;SDS011;7006;51.494;11.964;2023-04-25T05:03:15;13.53;;;7.70;;
13872;SDS011;7006;51.494;11.964;2023-04-25T05:05:43;12.70;;;7.87;;
13872;SDS011;7006;51.494;11.964;2023-04-25T05:08:14;12.80;;;8.20;;
13872;SDS011;7006;51.494;11.964;2023-04-25T05:10:43;17.07;;;8.70;;
13872;SDS011;7006;51.494;11.964;2023-04-25T05:13:11;13.40;;;7.70;;
13872;SDS011;7006;51.494;11.964;2023-04-25T05:15:40;16.23;;;9.20;;
13872;SDS011;7006;51.494;11.964;2023-04-25T05:18:08;13.97;;;8.63;;
13872;SDS011;7006;51.494;11.964;2023-04-25T05:20:36;18.03;;;9.33;;
13872;SDS011;7006;51.494;11.964;2023-04-25T05:23:05;14.83;;;8.50;;
13872;SDS011;7006;51.494;11.964;2023-04-25T05:25:36;18.97;;;9.40;;
13872;SDS011;7006;51.494;11.964;2023-04-25T05:28:04;14.00;;;8.50;;
13872;SDS011;7006;51.494;11.964;2023-04-25T05:30:33;14.60;;;8.90;;
13872;SDS011;7006;51.494;11.964;2023-04-25T05:33:02;15.40;;;8.47;;
13872;SDS011;7006;51.494;11.964;2023-04-25T05:35:30;12.87;;;9.07;;
13872;SDS011;7006;51.494;11.964;2023-04-25T05:37:59;15.93;;;9.33;;
13872;SDS011;7006;51.494;11.964;2023-04-25T05:40:27;17.10;;;9.70;;
13872;SDS011;7006;51.494;11.964;2023-04-25T05:42:58;17.50;;;8.70;;
13872;SDS011;7006;51.494;11.964;2023-04-25T05:45:27;14.70;;;10.40;;
13872;SDS011;7006;51.494;11.964;2023-04-25T05:47:55;14.93;;;8.80;;
13872;SDS011;7006;51.494;11.964;2023-04-25T05:50:24;14.70;;;8.70;;
13872;SDS011;7006;51.494;11.964;2023-04-25T05:52:52;14.57;;;8.83;;
13872;SDS011;7006;51.494;11.964;2023-04-25T05:55:21;15.57;;;9.00;;
13872;SDS011;7006;51.494;11.964;2023-04-25T05:57:49;12.30;;;8.50;;
13872;SDS011;7006;51.494;11.964;2023-04-25T06:00:20;13.50;;;8.97;;
13872;SDS011;7006;51.494;11.964;2023-04-25T06:02:49;14.20;;;8.10;;
13872;SDS011;7006;51.494;11.964;2023-04-25T06:05:18;11.97;;;8.53;;
13872;SDS011;7006;51.494;11.964;2023-04-25T06:07:48;12.97;;;8.37;;
13872;SDS011;7006;51.494;11.964;2023-04-25T06:10:16;15.43;;;8.60;;
13872;SDS011;7006;51.494;11.964;2023-04-25T06:12:44;14.47;;;8.53;;
13872;SDS011;7006;51.494;11.964;2023-04-25T06:15:13;20.40;;;9.87;;
13872;SDS011;7006;51.494;11.964;2023-04-25T06:17:44;17.70;;;9.47;;
13872;SDS011;7006;51.494;11.964;2023-04-25T06:20:13;17.40;;;9.87;;
13872;SDS011;7006;51.494;11.964;2023-04-25T06:22:42;13.50;;;8.93;;
13872;SDS011;7006;51.494;11.964;2023-04-25T06:25:10;18.00;;;9.90;;
13872;SDS011;7006;51.494;11.964;2023-04-25T06:27:41;14.47;;;9.07;;
13872;SDS011;7006;51.494;11.964;2023-04-25T06:30:10;13.80;;;9.27;;
13872;SDS011;7006;51.494;11.964;2023-04-25T06:32:41;18.83;;;10.00;;
13872;SDS011;7006;51.494;11.964;2023-04-25T06:35:12;17.17;;;10.20;;
13872;SDS011;7006;51.494;11.964;2023-04-25T06:37:41;15.03;;;9.57;;
13872;SDS011;7006;51.494;11.964;2023-04-25T06:40:09;16.13;;;9.60;;
13872;SDS011;7006;51.494;11.964;2023-04-25T06:42:38;18.00;;;9.50;;
13872;SDS011;7006;51.494;11.964;2023-04-25T06:45:07;18.33;;;8.87;;
13872;SDS011;7006;51.494;11.964;2023-04-25T06:47:36;15.63;;;8.60;;
13872;SDS011;7006;51.494;11.964;2023-04-25T06:50:05;14.60;;;9.50;;
13872;SDS011;7006;51.494;11.964;2023-04-25T06:52:37;15.30;;;9.13;;
13872;SDS011;7006;51.494;11.964;2023-04-25T06:55:05;13.70;;;8.13;;
13872;SDS011;7006;51.494;11.964;2023-04-25T06:57:34;12.97;;;8.40;;
13872;SDS011;7006;51.494;11.964;2023-04-25T07:00:03;14.00;;;8.27;;
13872;SDS011;7006;51.494;11.964;2023-04-25T07:02:34;10.07;;;5.40;;
13872;SDS011;7006;51.494;11.964;2023-04-25T07:05:03;7.77;;;5.10;;
13872;SDS011;7006;51.494;11.964;2023-04-25T07:07:32;6.93;;;5.30;;
13872;SDS011;7006;51.494;11.964;2023-04-25T07:10:03;7.43;;;3.13;;
13872;SDS011;7006;51.494;11.964;2023-04-25T07:12:32;8.53;;;3.70;;
13872;SDS011;7006;51.494;11.964;2023-04-25T07:15:00;6.20;;;3.60;;
13872;SDS011;7006;51.494;11.964;2023-04-25T07:17:31;7.93;;;3.63;;
13872;SDS011;7006;51.494;11.964;2023-04-25T07:20:00;9.00;;;3.57;;
13872;SDS011;7006;51.494;11.964;2023-04-25T07:22:29;12.10;;;4.40;;
13872;SDS011;7006;51.494;11.964;2023-04-25T07:24:57;9.60;;;3.40;;
13872;SDS011;7006;51.494;11.964;2023-04-25T07:27:28;9.67;;;3.60;;
13872;SDS011;7006;51.494;11.964;2023-04-25T07:29:57;6.73;;;3.43;;
13872;SDS011;7006;51.494;11.964;2023-04-25T07:32:25;8.40;;;4.23;;
13872;SDS011;7006;51.494;11.964;2023-04-25T07:34:54;8.70;;;3.57;;
13872;SDS011;7006;51.494;11.964;2023-04-25T07:37:22;7.40;;;3.30;;
13872;SDS011;7006;51.494;11.964;2023-04-25T07:39:51;7.57;;;3.93;;
13872;SDS011;7006;51.494;11.964;2023-04-25T07:42:20;9.70;;;3.77;;
13872;SDS011;7006;51.494;11.964;2023-04-25T07:44:51;10.53;;;3.70;;
13872;SDS011;7006;51.494;11.964;2023-04-25T07:47:19;7.70;;;4.13;;
13872;SDS011;7006;51.494;11.964;2023-04-25T07:49:47;10.50;;;3.83;;
13872;SDS011;7006;51.494;11.964;2023-04-25T07:52:16;11.80;;;3.93;;
13872;SDS011;7006;51.494;11.964;2023-04-25T07:54:45;9.50;;;4.30;;
13872;SDS011;7006;51.494;11.964;2023-04-25T07:57:13;9.73;;;3.63;;
13872;SDS011;7006;51.494;11.964;2023-04-25T07:59:42;10.97;;;3.80;;
13872;SDS011;7006;51.494;11.964;2023-04-25T08:02:13;14.43;;;4.10;;
13872;SDS011;7006;51.494;11.964;2023-04-25T08:04:41;10.40;;;3.70;;
13872;SDS011;7006;51.494;11.964;2023-04-25T08:07:10;11.90;;;3.90;;
13872;SDS011;7006;51.494;11.964;2023-04-25T08:09:38;10.87;;;4.17;;
13872;SDS011;7006;51.494;11.964;2023-04-25T08:12:06;10.33;;;4.93;;
13872;SDS011;7006;51.494;11.964;2023-04-25T08:14:35;9.50;;;3.80;;
13872;SDS011;7006;51.494;11.964;2023-04-25T08:17:04;9.33;;;4.30;;
13872;SDS011;7006;51.494;11.964;2023-04-25T08:19:35;8.30;;;3.67;;
13872;SDS011;7006;51.494;11.964;2023-04-25T08:22:04;14.33;;;5.07;;
13872;SDS011;7006;51.494;11.964;2023-04-25T08:24:32;13.40;;;4.80;;
13872;SDS011;7006;51.494;11.964;2023-04-25T08:27:01;13.07;;;5.73;;
13872;SDS011;7006;51.494;11.964;2023-04-25T08:29:29;11.60;;;4.60;;
13872;SDS011;7006;51.494;11.964;2023-04-25T08:31:58;12.80;;;4.67;;
13872;SDS011;7006;51.494;11.964;2023-04-25T08:34:26;12.23;;;4.60;;
13872;SDS011;7006;51.494;11.964;2023-04-25T08:36:57;15.17;;;5.63;;
13872;SDS011;7006;51.494;11.964;2023-04-25T08:39:26;16.07;;;5.30;;
13872;SDS011;7006;51.494;11.964;2023-04-25T08:41:54;14.73;;;6.20;;
13872;SDS011;7006;51.494;11.964;2023-04-25T08:44:23;12.07;;;5.10;;
13872;SDS011;7006;51.494;11.964;2023-04-25T08:46:52;15.93;;;5.20;;
13872;SDS011;7006;51.494;11.964;2023-04-25T08:49:21;13.30;;;6.00;;
13872;SDS011;7006;51.494;11.964;2023-04-25T08:51:50;13.90;;;5.87;;
13872;SDS011;7006;51.494;11.964;2023-04-25T08:54:21;12.93;;;6.50;;
13872;SDS011;7006;51.494;11.964;2023-04-25T08:56:53;17.90;;;6.60;;
13872;SDS011;7006;51.494;11.964;2023-04-25T08:59:22;11.80;;;7.17;;
13872;SDS011;7006;51.494;11.964;2023-04-25T09:01:51;12.03;;;6.80;;
13872;SDS011;7006;51.494;11.964;2023-04-25T09:04:19;17.63;;;8.07;;
13872;SDS011;7006;51.494;11.964;2023-04-25T09:06:48;17.37;;;7.60;;
13872;SDS011;7006;51.494;11.964;2023-04-25T09:09:17;16.77;;;6.93;;
13872;SDS011;7006;51.494;11.964;2023-04-25T09:11:49;20.43;;;9.43;;
13872;SDS011;7006;51.494;11.964;2023-04-25T09:14:18;16.80;;;7.60;;
13872;SDS011;7006;51.494;11.964;2023-04-25T09:17:00;14.23;;;8.03;;
13872;SDS011;7006;51.494;11.964;2023-04-25T09:19:30;14.60;;;8.00;;
13872;SDS011;7006;51.494;11.964;2023-04-25T09:22:01;14.43;;;7.57;;
13872;SDS011;7006;51.494;11.964;2023-04-25T09:24:31;14.77;;;7.63;;
13872;SDS011;7006;51.494;11.964;2023-04-25T09:27:07;13.73;;;8.27;;
13872;SDS011;7006;51.494;11.964;2023-04-25T09:29:37;13.50;;;8.33;;
13872;SDS011;7006;51.494;11.964;2023-04-25T09:32:16;13.87;;;7.70;;
13872;SDS011;7006;51.494;11.964;2023-04-25T09:34:47;15.17;;;7.87;;
13872;SDS011;7006;51.494;11.964;2023-04-25T09:37:17;18.03;;;8.77;;
13872;SDS011;7006;51.494;11.964;2023-04-25T09:39:46;16.73;;;8.03;;
13872;SDS011;7006;51.494;11.964;2023-04-25T09:42:18;16.70;;;8.90;;
13872;SDS011;7006;51.494;11.964;2023-04-25T09:44:46;13.77;;;8.97;;
13872;SDS011;7006;51.494;11.964;2023-04-25T09:47:15;15.00;;;7.70;;
13872;SDS011;7006;51.494;11.964;2023-04-25T09:49:46;12.30;;;7.07;;
13872;SDS011;7006;51.494;11.964;2023-04-25T09:52:16;13.30;;;7.40;;
13872;SDS011;7006;51.494;11.964;2023-04-25T09:54:45;13.23;;;6.13;;
13872;SDS011;7006;51.494;11.964;2023-04-25T09:57:15;11.83;;;6.83;;
13872;SDS011;7006;51.494;11.964;2023-04-25T09:59:47;9.57;;;6.70;;
13872;SDS011;7006;51.494;11.964;2023-04-25T10:02:16;19.73;;;7.73;;
13872;SDS011;7006;51.494;11.964;2023-04-25T10:04:47;12.67;;;6.17;;
13872;SDS011;7006;51.494;11.964;2023-04-25T10:07:18;11.43;;;6.37;;
13872;SDS011;7006;51.494;11.964;2023-04-25T10:09:48;14.03;;;6.50;;
13872;SDS011;7006;51.494;11.964;2023-04-25T10:12:20;10.73;;;6.20;;
13872;SDS011;7006;51.494;11.964;2023-04-25T10:14:48;11.70;;;5.57;;
13872;SDS011;7006;51.494;11.964;2023-04-25T10:17:17;9.23;;;5.17;;
13872;SDS011;7006;51.494;11.964;2023-04-25T10:19:45;9.07;;;5.40;;
13872;SDS011;7006;51.494;11.964;2023-04-25T10:22:14;11.60;;;6.33;;
13872;SDS011;7006;51.494;11.964;2023-04-25T10:24:46;13.53;;;7.20;;
13872;SDS011;7006;51.494;11.964;2023-04-25T10:27:15;19.70;;;7.37;;
13872;SDS011;7006;51.494;11.964;2023-04-25T10:29:46;12.87;;;7.50;;
13872;SDS011;7006;51.494;11.964;2023-04-25T10:32:30;12.00;;;7.20;;
13872;SDS011;7006;51.494;11.964;2023-04-25T10:35:04;14.60;;;7.00;;
13872;SDS011;7006;51.494;11.964;2023-04-25T10:37:38;12.70;;;6.53;;
13872;SDS011;7006;51.494;11.964;2023-04-25T10:40:10;11.30;;;5.90;;
13872;SDS011;7006;51.494;11.964;2023-04-25T10:42:40;13.27;;;5.67;;
13872;SDS011;7006;51.494;11.964;2023-04-25T10:45:11;17.40;;;7.03;;
13872;SDS011;7006;51.494;11.964;2023-04-25T10:47:43;9.70;;;5.20;;
13872;SDS011;7006;51.494;11.964;2023-04-25T10:50:13;10.53;;;4.73;;
13872;SDS011;7006;51.494;11.964;2023-04-25T10:52:42;13.60;;;5.20;;
13872;SDS011;7006;51.494;11.964;2023-04-25T10:55:11;7.23;;;4.30;;
13872;SDS011;7006;51.494;11.964;2023-04-25T10:57:40;11.63;;;5.30;;
13872;SDS011;7006;51.494;11.964;2023-04-25T11:00:13;7.70;;;4.03;;
13872;SDS011;7006;51.494;11.964;2023-04-25T11:02:44;14.00;;;4.40;;
13872;SDS011;7006;51.494;11.964;2023-04-25T11:05:20;11.10;;;4.23;;
13872;SDS011;7006;51.494;11.964;2023-04-25T11:07:51;9.83;;;3.73;;
13872;SDS011;7006;51.494;11.964;2023-04-25T11:10:24;8.60;;;3.83;;
13872;SDS011;7006;51.494;11.964;2023-04-25T11:12:53;7.90;;;3.37;;
13872;SDS011;7006;51.494;11.964;2023-04-25T11:15:24;15.43;;;4.17;;
13872;SDS011;7006;51.494;11.964;2023-04-25T11:17:53;9.10;;;3.60;;
13872;SDS011;7006;51.494;11.964;2023-04-25T11:20:24;8.70;;;3.20;;
13872;SDS011;7006;51.494;11.964;2023-04-25T11:22:53;11.20;;;4.20;;
13872;SDS011;7006;51.494;11.964;2023-04-25T11:25:25;13.97;;;4.33;;
13872;SDS011;7006;51.494;11.964;2023-04-25T11:27:54;8.60;;;4.27;;
13872;SDS011;7006;51.494;11.964;2023-04-25T11:30:26;7.53;;;4.37;;
13872;SDS011;7006;51.494;11.964;2023-04-25T11:32:56;11.07;;;5.50;;
13872;SDS011;7006;51.494;11.964;2023-04-25T11:35:25;11.87;;;3.83;;
13872;SDS011;7006;51.494;11.964;2023-04-25T11:37:53;9.10;;;3.57;;
13872;SDS011;7006;51.494;11.964;2023-04-25T11:40:22;8.17;;;3.27;;
13872;SDS011;7006;51.494;11.964;2023-04-25T11:42:50;12.47;;;3.90;;
13872;SDS011;7006;51.494;11.964;2023-04-25T11:45:18;7.00;;;3.00;;
13872;SDS011;7006;51.494;11.964;2023-04-25T11:47:50;9.37;;;4.10;;
13872;SDS011;7006;51.494;11.964;2023-04-25T11:50:18;11.13;;;3.87;;
13872;SDS011;7006;51.494;11.964;2023-04-25T11:52:47;7.83;;;3.90;;
13872;SDS011;7006;51.494;11.964;2023-04-25T11:55:17;9.10;;;3.70;;
13872;SDS011;7006;51.494;11.964;2023-04-25T11:57:47;10.33;;;3.90;;
13872;SDS011;7006;51.494;11.964;2023-04-25T12:00:17;11.63;;;4.43;;
13872;SDS011;7006;51.494;11.964;2023-04-25T12:02:50;10.33;;;3.57;;
13872;SDS011;7006;51.494;11.964;2023-04-25T12:05:23;9.33;;;3.90;;
13872;SDS011;7006;51.494;11.964;2023-04-25T12:07:52;8.13;;;3.10;;
13872;SDS011;7006;51.494;11.964;2023-04-25T12:10:21;7.77;;;3.23;;
13872;SDS011;7006;51.494;11.964;2023-04-25T12:12:50;6.97;;;3.50;;
13872;SDS011;7006;51.494;11.964;2023-04-25T12:15:22;6.63;;;2.90;;
13872;SDS011;7006;51.494;11.964;2023-04-25T12:17:54;4.73;;;2.40;;
13872;SDS011;7006;51.494;11.964;2023-04-25T12:20:24;4.80;;;2.27;;
13872;SDS011;7006;51.494;11.964;2023-04-25T12:22:53;4.40;;;2.13;;
13872;SDS011;7006;51.494;11.964;2023-04-25T12:25:34;8.60;;;2.20;;
13872;SDS011;7006;51.494;11.964;2023-04-25T12:28:10;3.97;;;2.50;;
13872;SDS011;7006;51.494;11.964;2023-04-25T12:30:52;3.83;;;2.13;;
13872;SDS011;7006;51.494;11.964;2023-04-25T12:33:25;5.83;;;2.50;;
13872;SDS011;7006;51.494;11.964;2023-04-25T12:35:54;7.73;;;2.60;;
13872;SDS011;7006;51.494;11.964;2023-04-25T12:38:24;8.07;;;2.53;;
13872;SDS011;7006;51.494;11.964;2023-04-25T12:40:54;6.60;;;2.40;;
13872;SDS011;7006;51.494;11.964;2023-04-25T12:43:23;5.83;;;2.33;;
13872;SDS011;7006;51.494;11.964;2023-04-25T12:45:51;8.40;;;3.30;;
13872;SDS011;7006;51.494;11.964;2023-04-25T12:48:21;8.80;;;2.73;;
13872;SDS011;7006;51.494;11.964;2023-04-25T12:50:52;8.33;;;2.90;;
13872;SDS011;7006;51.494;11.964;2023-04-25T12:53:21;5.53;;;2.87;;
13872;SDS011;7006;51.494;11.964;2023-04-25T12:55:51;7.07;;;3.17;;
13872;SDS011;7006;51.494;11.964;2023-04-25T12:58:19;6.00;;;3.00;;
13872;SDS011;7006;51.494;11.964;2023-04-25T13:00:48;10.43;;;2.63;;
13872;SDS011;7006;51.494;11.964;2023-04-25T13:03:17;6.13;;;2.80;;
13872;SDS011;7006;51.494;11.964;2023-04-25T13:05:46;6.73;;;3.77;;
13872;SDS011;7006;51.494;11.964;2023-04-25T13:08:18;7.27;;;2.43;;
13872;SDS011;7006;51.494;11.964;2023-04-25T13:10:47;7.13;;;2.43;;
13872;SDS011;7006;51.494;11.964;2023-04-25T13:13:15;7.07;;;2.90;;
13872;SDS011;7006;51.494;11.964;2023-04-25T13:15:44;7.13;;;2.67;;
13872;SDS011;7006;51.494;11.964;2023-04-25T13:18:14;6.83;;;2.67;;
13872;SDS011;7006;51.494;11.964;2023-04-25T13:20:43;6.13;;;2.80;;
13872;SDS011;7006;51.494;11.964;2023-04-25T13:23:11;5.33;;;2.03;;
13872;SDS011;7006;51.494;11.964;2023-04-25T13:25:42;6.33;;;2.37;;
13872;SDS011;7006;51.494;11.964;2023-04-25T13:28:11;4.60;;;2.20;;
13872;SDS011;7006;51.494;11.964;2023-04-25T13:30:40;6.43;;;2.60;;
13872;SDS011;7006;51.494;11.964;2023-04-25T13:33:08;6.50;;;2.60;;
13872;SDS011;7006;51.494;11.964;2023-04-25T13:35:37;6.70;;;3.00;;
13872;SDS011;7006;51.494;11.964;2023-04-25T13:38:06;5.40;;;3.00;;
13872;SDS011;7006;51.494;11.964;2023-04-25T13:40:34;5.60;;;2.83;;
13872;SDS011;7006;51.494;11.964;2023-04-25T13:43:06;6.63;;;2.60;;
13872;SDS011;7006;51.494;11.964;2023-04-25T13:45:34;5.83;;;2.70;;
13872;SDS011;7006;51.494;11.964;2023-04-25T13:48:03;8.63;;;3.30;;
13872;SDS011;7006;51.494;11.964;2023-04-25T13:50:31;5.97;;;3.13;;
13872;SDS011;7006;51.494;11.964;2023-04-25T13:53:00;5.20;;;2.70;;
13872;SDS011;7006;51.494;11.964;2023-04-25T13:55:29;4.80;;;2.60;;
13872;SDS011;7006;51.494;11.964;2023-04-25T13:57:58;5.73;;;2.50;;
13872;SDS011;7006;51.494;11.964;2023-04-25T14:00:34;4.63;;;2.70;;
13872;SDS011;7006;51.494;11.964;2023-04-25T14:03:04;4.10;;;2.90;;
13872;SDS011;7006;51.494;11.964;2023-04-25T14:05:33;4.57;;;2.80;;
13872;SDS011;7006;51.494;11.964;2023-04-25T14:08:04;4.10;;;3.23;;
13872;SDS011;7006;51.494;11.964;2023-04-25T14:10:34;7.30;;;3.40;;
13872;SDS011;7006;51.494;11.964;2023-04-25T14:13:04;6.70;;;3.10;;
13872;SDS011;7006;51.494;11.964;2023-04-25T14:15:35;6.30;;;2.70;;
13872;SDS011;7006;51.494;11.964;2023-04-25T14:18:04;6.07;;;3.23;;
13872;SDS011;7006;51.494;11.964;2023-04-25T14:20:33;7.17;;;3.40;;
13872;SDS011;7006;51.494;11.964;2023-04-25T14:23:02;4.93;;;2.80;;
13872;SDS011;7006;51.494;11.964;2023-04-25T14:25:30;4.40;;;3.10;;
13872;SDS011;7006;51.494;11.964;2023-04-25T14:27:59;4.90;;;2.77;;
13872;SDS011;7006;51.494;11.964;2023-04-25T14:30:27;5.73;;;2.90;;
13872;SDS011;7006;51.494;11.964;2023-04-25T14:32:58;6.47;;;2.97;;
13872;SDS011;7006;51.494;11.964;2023-04-25T14:35:27;7.03;;;3.73;;
13872;SDS011;7006;51.494;11.964;2023-04-25T14:37:55;6.20;;;2.77;;
13872;SDS011;7006;51.494;11.964;2023-04-25T14:40:24;6.30;;;3.10;;
13872;SDS011;7006;51.494;11.964;2023-04-25T14:42:53;6.43;;;3.30;;
13872;SDS011;7006;51.494;11.964;2023-04-25T14:45:22;4.73;;;2.57;;
13872;SDS011;7006;51.494;11.964;2023-04-25T14:47:50;7.60;;;3.00;;
13872;SDS011;7006;51.494;11.964;2023-04-25T14:50:22;6.83;;;3.10;;
13872;SDS011;7006;51.494;11.964;2023-04-25T14:52:50;4.60;;;2.30;;